sensor_id;sensor_type;location;lat;lon;timestamp;pressure;altitude;pressure_sealevel;temperature;humidity
31681;BME280;18281;51.364;9.566;2022-07-01T00:00:47;99657.22;;;15.96;92.26
31681;BME280;18281;51.364;9.566;2022-07-01T00:03:13;99661.38;;;15.45;93.25
31681;BME280;18281;51.364;9.566;2022-07-01T00:05:38;99677.53;;;15.74;92.95
31681;BME280;18281;51.364;9.566;2022-07-01T00:08:04;99687.31;;;15.74;92.38
31681;BME280;18281;51.364;9.566;2022-07-01T00:10:29;99705.56;;;15.77;92.48
31681;BME280;18281;51.364;9.566;2022-07-01T00:12:55;99688.53;;;16.12;90.81
31681;BME280;18281;51.364;9.566;2022-07-01T00:15:20;99701.41;;;15.52;92.63
31681;BME280;18281;51.364;9.566;2022-07-01T00:17:47;99700.59;;;15.40;92.91
31681;BME280;18281;51.364;9.566;2022-07-01T00:20:14;99702.97;;;15.54;92.79
31681;BME280;18281;51.364;9.566;2022-07-01T00:22:40;99709.78;;;15.80;91.78
31681;BME280;18281;51.364;9.566;2022-07-01T00:25:06;99709.88;;;15.34;93.57
31681;BME280;18281;51.364;9.566;2022-07-01T00:27:32;99712.03;;;15.40;93.92
31681;BME280;18281;51.364;9.566;2022-07-01T00:29:57;99706.41;;;15.77;92.75
31681;BME280;18281;51.364;9.566;2022-07-01T00:32:23;99715.56;;;15.30;93.44
31681;BME280;18281;51.364;9.566;2022-07-01T00:34:48;99714.00;;;15.16;94.56
31681;BME280;18281;51.364;9.566;2022-07-01T00:37:14;99708.44;;;15.41;93.79
31681;BME280;18281;51.364;9.566;2022-07-01T00:39:39;99711.00;;;15.64;92.61
31681;BME280;18281;51.364;9.566;2022-07-01T00:42:05;99712.16;;;15.39;93.95
31681;BME280;18281;51.364;9.566;2022-07-01T00:44:31;99715.94;;;15.14;95.14
31681;BME280;18281;51.364;9.566;2022-07-01T00:46:58;99715.78;;;15.26;93.81
31681;BME280;18281;51.364;9.566;2022-07-01T00:49:25;99727.34;;;15.14;94.17
31681;BME280;18281;51.364;9.566;2022-07-01T00:51:52;99729.03;;;15.15;93.75
31681;BME280;18281;51.364;9.566;2022-07-01T00:54:19;99713.72;;;15.41;92.73
31681;BME280;18281;51.364;9.566;2022-07-01T00:56:46;99717.72;;;15.24;94.04
31681;BME280;18281;51.364;9.566;2022-07-01T00:59:12;99720.22;;;15.26;93.89
31681;BME280;18281;51.364;9.566;2022-07-01T01:01:38;99726.41;;;14.81;94.61
31681;BME280;18281;51.364;9.566;2022-07-01T01:04:03;99723.75;;;15.15;93.98
31681;BME280;18281;51.364;9.566;2022-07-01T01:06:29;99735.75;;;15.19;92.69
31681;BME280;18281;51.364;9.566;2022-07-01T01:08:54;99747.38;;;14.71;93.16
31681;BME280;18281;51.364;9.566;2022-07-01T01:11:20;99749.06;;;14.61;95.12
31681;BME280;18281;51.364;9.566;2022-07-01T01:13:46;99755.94;;;14.86;94.30
31681;BME280;18281;51.364;9.566;2022-07-01T01:16:19;99755.00;;;15.10;93.03
31681;BME280;18281;51.364;9.566;2022-07-01T01:18:45;99754.84;;;15.12;92.45
31681;BME280;18281;51.364;9.566;2022-07-01T01:21:11;99755.72;;;14.89;92.43
31681;BME280;18281;51.364;9.566;2022-07-01T01:23:36;99766.69;;;14.60;93.15
31681;BME280;18281;51.364;9.566;2022-07-01T01:26:02;99781.34;;;14.65;93.30
31681;BME280;18281;51.364;9.566;2022-07-01T01:28:27;99781.78;;;14.36;93.68
31681;BME280;18281;51.364;9.566;2022-07-01T01:30:53;99792.19;;;14.02;94.73
31681;BME280;18281;51.364;9.566;2022-07-01T01:33:19;99800.63;;;14.07;95.60
31681;BME280;18281;51.364;9.566;2022-07-01T01:35:44;99800.34;;;13.62;97.17
31681;BME280;18281;51.364;9.566;2022-07-01T01:38:10;99813.03;;;13.93;97.11
31681;BME280;18281;51.364;9.566;2022-07-01T01:40:36;99813.03;;;13.93;96.05
31681;BME280;18281;51.364;9.566;2022-07-01T01:43:02;99815.84;;;14.03;95.54
31681;BME280;18281;51.364;9.566;2022-07-01T01:45:27;99818.59;;;14.02;95.32
31681;BME280;18281;51.364;9.566;2022-07-01T01:47:53;99814.41;;;13.86;96.21
31681;BME280;18281;51.364;9.566;2022-07-01T01:50:19;99810.06;;;14.22;94.65
31681;BME280;18281;51.364;9.566;2022-07-01T01:52:45;99819.63;;;14.23;94.10
31681;BME280;18281;51.364;9.566;2022-07-01T01:55:11;99817.13;;;13.98;94.67
31681;BME280;18281;51.364;9.566;2022-07-01T01:57:36;99831.28;;;13.97;94.22
31681;BME280;18281;51.364;9.566;2022-07-01T02:00:04;99830.31;;;13.98;94.19
31681;BME280;18281;51.364;9.566;2022-07-01T02:02:29;99829.22;;;13.89;94.66
31681;BME280;18281;51.364;9.566;2022-07-01T02:04:55;99840.38;;;13.55;95.36
31681;BME280;18281;51.364;9.566;2022-07-01T02:07:20;99838.44;;;13.57;95.09
31681;BME280;18281;51.364;9.566;2022-07-01T02:09:45;99844.13;;;13.64;95.87
31681;BME280;18281;51.364;9.566;2022-07-01T02:12:11;99842.69;;;13.84;95.02
31681;BME280;18281;51.364;9.566;2022-07-01T02:14:36;99843.31;;;14.01;93.96
31681;BME280;18281;51.364;9.566;2022-07-01T02:17:02;99855.00;;;14.09;93.14
31681;BME280;18281;51.364;9.566;2022-07-01T02:19:27;99859.03;;;14.02;92.79
31681;BME280;18281;51.364;9.566;2022-07-01T02:21:53;99868.59;;;14.16;92.20
31681;BME280;18281;51.364;9.566;2022-07-01T02:24:18;99874.63;;;14.18;92.61
31681;BME280;18281;51.364;9.566;2022-07-01T02:26:44;99877.91;;;14.09;93.21
31681;BME280;18281;51.364;9.566;2022-07-01T02:29:13;99893.75;;;14.09;92.09
31681;BME280;18281;51.364;9.566;2022-07-01T02:31:38;99892.22;;;13.93;92.80
31681;BME280;18281;51.364;9.566;2022-07-01T02:34:04;99882.72;;;14.15;92.29
31681;BME280;18281;51.364;9.566;2022-07-01T02:36:29;99893.16;;;13.92;92.86
31681;BME280;18281;51.364;9.566;2022-07-01T02:38:55;99899.41;;;13.91;92.64
31681;BME280;18281;51.364;9.566;2022-07-01T02:41:20;99898.75;;;14.01;91.72
31681;BME280;18281;51.364;9.566;2022-07-01T02:43:46;99889.34;;;13.97;92.26
31681;BME280;18281;51.364;9.566;2022-07-01T02:46:11;99892.72;;;13.86;92.14
31681;BME280;18281;51.364;9.566;2022-07-01T02:48:36;99901.38;;;14.01;91.67
31681;BME280;18281;51.364;9.566;2022-07-01T02:51:02;99904.56;;;13.80;92.50
31681;BME280;18281;51.364;9.566;2022-07-01T02:53:27;99903.94;;;13.76;92.15
31681;BME280;18281;51.364;9.566;2022-07-01T02:55:53;99915.13;;;13.80;91.96
31681;BME280;18281;51.364;9.566;2022-07-01T02:58:18;99910.03;;;14.03;90.86
31681;BME280;18281;51.364;9.566;2022-07-01T03:00:44;99909.53;;;14.22;90.30
31681;BME280;18281;51.364;9.566;2022-07-01T03:03:09;99923.72;;;13.58;92.56
31681;BME280;18281;51.364;9.566;2022-07-01T03:05:35;99914.69;;;13.86;92.13
31681;BME280;18281;51.364;9.566;2022-07-01T03:08:00;99906.13;;;13.83;91.83
31681;BME280;18281;51.364;9.566;2022-07-01T03:10:26;99913.25;;;13.69;92.58
31681;BME280;18281;51.364;9.566;2022-07-01T03:12:52;99912.59;;;13.79;92.22
31681;BME280;18281;51.364;9.566;2022-07-01T03:15:17;99913.19;;;14.08;91.11
31681;BME280;18281;51.364;9.566;2022-07-01T03:17:44;99906.34;;;14.30;89.80
31681;BME280;18281;51.364;9.566;2022-07-01T03:20:15;99910.16;;;13.88;90.61
31681;BME280;18281;51.364;9.566;2022-07-01T03:22:42;99907.09;;;13.95;90.93
31681;BME280;18281;51.364;9.566;2022-07-01T03:25:08;99906.34;;;13.92;90.78
31681;BME280;18281;51.364;9.566;2022-07-01T03:27:34;99897.72;;;13.90;91.03
31681;BME280;18281;51.364;9.566;2022-07-01T03:30:00;99894.75;;;13.82;91.34
31681;BME280;18281;51.364;9.566;2022-07-01T03:32:25;99884.69;;;13.50;92.85
31681;BME280;18281;51.364;9.566;2022-07-01T03:34:52;99880.00;;;13.67;92.24
31681;BME280;18281;51.364;9.566;2022-07-01T03:37:18;99887.63;;;13.46;93.12
31681;BME280;18281;51.364;9.566;2022-07-01T03:39:44;99878.41;;;13.64;91.70
31681;BME280;18281;51.364;9.566;2022-07-01T03:42:10;99887.31;;;13.12;93.11
31681;BME280;18281;51.364;9.566;2022-07-01T03:44:36;99887.75;;;13.31;93.01
31681;BME280;18281;51.364;9.566;2022-07-01T03:47:02;99890.47;;;13.30;93.40
31681;BME280;18281;51.364;9.566;2022-07-01T03:49:28;99893.41;;;13.64;91.89
31681;BME280;18281;51.364;9.566;2022-07-01T03:51:54;99895.66;;;13.31;93.12
31681;BME280;18281;51.364;9.566;2022-07-01T03:54:20;99897.94;;;13.62;92.10
31681;BME280;18281;51.364;9.566;2022-07-01T03:59:27;99919.81;;;13.38;92.98
31681;BME280;18281;51.364;9.566;2022-07-01T04:01:56;99923.06;;;13.41;92.69
31681;BME280;18281;51.364;9.566;2022-07-01T04:04:23;99923.81;;;13.18;93.13
31681;BME280;18281;51.364;9.566;2022-07-01T04:06:49;99924.88;;;13.41;92.39
31681;BME280;18281;51.364;9.566;2022-07-01T04:09:16;99924.97;;;13.26;92.69
31681;BME280;18281;51.364;9.566;2022-07-01T04:11:47;99920.31;;;13.17;93.85
31681;BME280;18281;51.364;9.566;2022-07-01T04:14:13;99912.19;;;13.20;92.65
31681;BME280;18281;51.364;9.566;2022-07-01T04:16:39;99917.19;;;13.38;92.10
31681;BME280;18281;51.364;9.566;2022-07-01T04:19:04;99911.13;;;13.62;91.52
31681;BME280;18281;51.364;9.566;2022-07-01T04:21:30;99924.84;;;13.80;91.00
31681;BME280;18281;51.364;9.566;2022-07-01T04:24:14;99912.38;;;13.82;90.26
31681;BME280;18281;51.364;9.566;2022-07-01T04:26:41;99910.75;;;13.42;91.54
31681;BME280;18281;51.364;9.566;2022-07-01T04:29:07;99920.00;;;13.35;92.25
31681;BME280;18281;51.364;9.566;2022-07-01T04:31:36;99929.69;;;12.96;94.14
31681;BME280;18281;51.364;9.566;2022-07-01T04:34:02;99938.97;;;13.01;95.25
31681;BME280;18281;51.364;9.566;2022-07-01T04:36:28;99941.84;;;13.37;95.72
31681;BME280;18281;51.364;9.566;2022-07-01T04:38:54;99943.41;;;14.04;94.39
31681;BME280;18281;51.364;9.566;2022-07-01T04:41:19;99945.44;;;14.24;92.47
31681;BME280;18281;51.364;9.566;2022-07-01T04:44:03;99928.84;;;13.98;91.42
31681;BME280;18281;51.364;9.566;2022-07-01T04:46:29;99931.00;;;14.17;90.60
31681;BME280;18281;51.364;9.566;2022-07-01T04:48:55;99924.63;;;13.96;90.34
31681;BME280;18281;51.364;9.566;2022-07-01T04:51:21;99936.28;;;13.29;91.99
31681;BME280;18281;51.364;9.566;2022-07-01T04:53:47;99932.63;;;13.81;90.67
31681;BME280;18281;51.364;9.566;2022-07-01T04:56:13;99934.44;;;13.81;90.71
31681;BME280;18281;51.364;9.566;2022-07-01T04:58:41;99934.75;;;13.63;91.18
31681;BME280;18281;51.364;9.566;2022-07-01T05:01:07;99936.88;;;13.32;90.82
31681;BME280;18281;51.364;9.566;2022-07-01T05:03:33;99926.66;;;13.66;90.19
31681;BME280;18281;51.364;9.566;2022-07-01T05:05:59;99916.56;;;13.47;90.06
31681;BME280;18281;51.364;9.566;2022-07-01T05:08:24;99912.22;;;13.46;90.49
31681;BME280;18281;51.364;9.566;2022-07-01T05:10:50;99914.06;;;13.70;89.93
31681;BME280;18281;51.364;9.566;2022-07-01T05:13:15;99930.47;;;13.49;89.96
31681;BME280;18281;51.364;9.566;2022-07-01T05:15:41;99943.53;;;13.25;91.35
31681;BME280;18281;51.364;9.566;2022-07-01T05:18:06;99957.38;;;13.67;90.96
31681;BME280;18281;51.364;9.566;2022-07-01T05:20:50;99951.56;;;13.49;91.70
31681;BME280;18281;51.364;9.566;2022-07-01T05:23:34;99960.81;;;13.29;91.40
31681;BME280;18281;51.364;9.566;2022-07-01T05:26:01;99977.38;;;13.18;92.93
31681;BME280;18281;51.364;9.566;2022-07-01T05:28:26;99972.84;;;13.33;93.33
31681;BME280;18281;51.364;9.566;2022-07-01T05:30:52;99969.38;;;13.46;91.71
31681;BME280;18281;51.364;9.566;2022-07-01T05:33:17;99978.03;;;13.35;92.77
31681;BME280;18281;51.364;9.566;2022-07-01T05:35:47;99978.56;;;13.66;92.39
31681;BME280;18281;51.364;9.566;2022-07-01T05:38:13;99981.72;;;13.45;94.78
31681;BME280;18281;51.364;9.566;2022-07-01T05:40:38;99978.13;;;13.72;94.48
31681;BME280;18281;51.364;9.566;2022-07-01T05:43:04;99975.19;;;13.64;94.58
31681;BME280;18281;51.364;9.566;2022-07-01T05:45:30;99986.34;;;13.80;92.92
31681;BME280;18281;51.364;9.566;2022-07-01T05:47:55;99994.06;;;13.83;94.91
31681;BME280;18281;51.364;9.566;2022-07-01T05:50:22;99998.19;;;13.74;94.66
31681;BME280;18281;51.364;9.566;2022-07-01T05:52:48;100014.75;;;13.38;97.59
31681;BME280;18281;51.364;9.566;2022-07-01T05:55:13;100017.28;;;13.52;95.04
31681;BME280;18281;51.364;9.566;2022-07-01T05:57:39;100002.72;;;13.59;95.22
31681;BME280;18281;51.364;9.566;2022-07-01T06:00:05;99997.88;;;13.92;93.23
31681;BME280;18281;51.364;9.566;2022-07-01T06:02:30;99987.22;;;14.06;93.37
31681;BME280;18281;51.364;9.566;2022-07-01T06:04:56;100002.41;;;14.03;93.19
31681;BME280;18281;51.364;9.566;2022-07-01T06:07:21;99999.50;;;14.32;91.92
31681;BME280;18281;51.364;9.566;2022-07-01T06:09:46;100009.16;;;14.07;92.87
31681;BME280;18281;51.364;9.566;2022-07-01T06:12:12;100008.19;;;13.56;94.52
31681;BME280;18281;51.364;9.566;2022-07-01T06:14:37;100001.44;;;13.39;95.88
31681;BME280;18281;51.364;9.566;2022-07-01T06:17:04;99993.66;;;13.89;95.69
31681;BME280;18281;51.364;9.566;2022-07-01T06:19:29;99965.97;;;14.08;93.79
31681;BME280;18281;51.364;9.566;2022-07-01T06:21:54;99963.69;;;13.90;95.12
31681;BME280;18281;51.364;9.566;2022-07-01T06:24:20;99994.06;;;13.57;97.08
31681;BME280;18281;51.364;9.566;2022-07-01T06:26:45;99995.63;;;13.21;97.31
31681;BME280;18281;51.364;9.566;2022-07-01T06:29:12;99998.31;;;13.47;94.89
31681;BME280;18281;51.364;9.566;2022-07-01T06:31:38;100005.91;;;13.65;94.68
31681;BME280;18281;51.364;9.566;2022-07-01T06:34:03;100008.63;;;13.76;94.54
31681;BME280;18281;51.364;9.566;2022-07-01T06:36:29;100021.81;;;13.63;94.94
31681;BME280;18281;51.364;9.566;2022-07-01T06:38:54;100025.75;;;13.70;95.14
31681;BME280;18281;51.364;9.566;2022-07-01T06:41:19;100028.91;;;13.75;94.64
31681;BME280;18281;51.364;9.566;2022-07-01T06:44:03;100026.34;;;13.87;95.06
31681;BME280;18281;51.364;9.566;2022-07-01T06:46:30;100027.63;;;13.81;94.81
31681;BME280;18281;51.364;9.566;2022-07-01T06:48:56;100033.31;;;13.49;95.98
31681;BME280;18281;51.364;9.566;2022-07-01T06:51:23;100049.81;;;13.25;97.17
31681;BME280;18281;51.364;9.566;2022-07-01T06:53:49;100045.88;;;13.05;98.00
31681;BME280;18281;51.364;9.566;2022-07-01T06:56:15;100037.03;;;13.06;96.60
31681;BME280;18281;51.364;9.566;2022-07-01T06:58:41;100039.75;;;12.78;96.47
31681;BME280;18281;51.364;9.566;2022-07-01T07:01:06;100036.16;;;13.46;94.17
31681;BME280;18281;51.364;9.566;2022-07-01T07:03:32;100042.47;;;13.31;93.66
31681;BME280;18281;51.364;9.566;2022-07-01T07:06:01;100049.16;;;13.62;93.08
31681;BME280;18281;51.364;9.566;2022-07-01T07:08:27;100040.94;;;13.67;93.10
31681;BME280;18281;51.364;9.566;2022-07-01T07:10:52;100051.25;;;13.70;91.72
31681;BME280;18281;51.364;9.566;2022-07-01T07:13:18;100053.56;;;13.62;92.07
31681;BME280;18281;51.364;9.566;2022-07-01T07:15:44;100054.84;;;13.56;92.65
31681;BME280;18281;51.364;9.566;2022-07-01T07:18:10;100051.16;;;13.84;91.76
31681;BME280;18281;51.364;9.566;2022-07-01T07:20:35;100057.22;;;14.12;91.15
31681;BME280;18281;51.364;9.566;2022-07-01T07:23:01;100055.63;;;13.18;92.85
31681;BME280;18281;51.364;9.566;2022-07-01T07:25:26;100056.75;;;13.54;93.40
31681;BME280;18281;51.364;9.566;2022-07-01T07:27:52;100057.19;;;13.99;91.12
31681;BME280;18281;51.364;9.566;2022-07-01T07:30:18;100057.72;;;14.17;90.24
31681;BME280;18281;51.364;9.566;2022-07-01T07:32:44;100062.78;;;14.20;90.42
31681;BME280;18281;51.364;9.566;2022-07-01T07:35:10;100060.41;;;13.91;91.06
31681;BME280;18281;51.364;9.566;2022-07-01T07:37:36;100064.72;;;14.18;90.27
31681;BME280;18281;51.364;9.566;2022-07-01T07:40:03;100068.81;;;13.31;94.06
31681;BME280;18281;51.364;9.566;2022-07-01T07:42:32;100072.72;;;13.25;94.80
31681;BME280;18281;51.364;9.566;2022-07-01T07:44:57;100080.00;;;13.87;92.86
31681;BME280;18281;51.364;9.566;2022-07-01T07:47:23;100080.03;;;13.34;92.88
31681;BME280;18281;51.364;9.566;2022-07-01T07:49:48;100070.88;;;13.66;93.46
31681;BME280;18281;51.364;9.566;2022-07-01T07:52:13;100082.44;;;13.37;94.05
31681;BME280;18281;51.364;9.566;2022-07-01T07:54:39;100096.09;;;13.17;95.50
31681;BME280;18281;51.364;9.566;2022-07-01T07:57:05;100097.63;;;12.65;96.43
31681;BME280;18281;51.364;9.566;2022-07-01T07:59:30;100097.69;;;13.59;95.15
31681;BME280;18281;51.364;9.566;2022-07-01T08:01:56;100095.16;;;13.71;93.08
31681;BME280;18281;51.364;9.566;2022-07-01T08:04:22;100103.16;;;13.56;93.51
31681;BME280;18281;51.364;9.566;2022-07-01T08:06:47;100097.13;;;14.07;91.94
31681;BME280;18281;51.364;9.566;2022-07-01T08:09:13;100107.47;;;13.45;91.25
31681;BME280;18281;51.364;9.566;2022-07-01T08:11:38;100113.19;;;13.64;91.66
31681;BME280;18281;51.364;9.566;2022-07-01T08:14:04;100120.03;;;14.07;90.58
31681;BME280;18281;51.364;9.566;2022-07-01T08:16:30;100127.09;;;13.93;91.10
31681;BME280;18281;51.364;9.566;2022-07-01T08:18:55;100117.25;;;13.83;90.67
31681;BME280;18281;51.364;9.566;2022-07-01T08:21:21;100123.34;;;13.83;90.60
31681;BME280;18281;51.364;9.566;2022-07-01T08:23:46;100129.34;;;13.59;91.46
31681;BME280;18281;51.364;9.566;2022-07-01T08:26:12;100134.63;;;13.59;91.30
31681;BME280;18281;51.364;9.566;2022-07-01T08:28:39;100141.56;;;13.48;92.98
31681;BME280;18281;51.364;9.566;2022-07-01T08:31:04;100127.25;;;13.77;91.26
31681;BME280;18281;51.364;9.566;2022-07-01T08:33:30;100133.78;;;14.12;90.12
31681;BME280;18281;51.364;9.566;2022-07-01T08:35:55;100131.97;;;14.13;89.79
31681;BME280;18281;51.364;9.566;2022-07-01T08:38:20;100132.59;;;14.03;90.06
31681;BME280;18281;51.364;9.566;2022-07-01T08:40:46;100126.06;;;14.35;88.91
31681;BME280;18281;51.364;9.566;2022-07-01T08:43:14;100124.72;;;13.76;90.82
31681;BME280;18281;51.364;9.566;2022-07-01T08:45:40;100124.88;;;13.87;90.72
31681;BME280;18281;51.364;9.566;2022-07-01T08:48:06;100136.94;;;13.91;90.52
31681;BME280;18281;51.364;9.566;2022-07-01T08:50:36;100128.81;;;14.20;88.41
31681;BME280;18281;51.364;9.566;2022-07-01T08:53:03;100135.56;;;13.99;89.11
31681;BME280;18281;51.364;9.566;2022-07-01T08:55:29;100144.91;;;13.77;89.89
31681;BME280;18281;51.364;9.566;2022-07-01T08:57:54;100152.16;;;13.73;89.56
31681;BME280;18281;51.364;9.566;2022-07-01T09:00:20;100150.66;;;14.09;88.74
31681;BME280;18281;51.364;9.566;2022-07-01T09:02:56;100156.16;;;14.19;88.48
31681;BME280;18281;51.364;9.566;2022-07-01T09:05:23;100157.44;;;14.01;88.45
31681;BME280;18281;51.364;9.566;2022-07-01T09:07:55;100168.19;;;14.23;87.70
31681;BME280;18281;51.364;9.566;2022-07-01T09:10:21;100166.72;;;13.79;90.18
31681;BME280;18281;51.364;9.566;2022-07-01T09:12:47;100171.44;;;13.61;90.03
31681;BME280;18281;51.364;9.566;2022-07-01T09:15:30;100170.06;;;13.28;91.97
31681;BME280;18281;51.364;9.566;2022-07-01T09:18:02;100167.41;;;13.28;92.19
31681;BME280;18281;51.364;9.566;2022-07-01T09:20:33;100171.00;;;13.27;92.76
31681;BME280;18281;51.364;9.566;2022-07-01T09:23:07;100170.31;;;13.65;92.25
31681;BME280;18281;51.364;9.566;2022-07-01T09:28:04;100164.41;;;13.74;89.52
31681;BME280;18281;51.364;9.566;2022-07-01T09:30:29;100173.59;;;14.35;88.25
31681;BME280;18281;51.364;9.566;2022-07-01T09:33:15;100168.06;;;13.99;88.68
31681;BME280;18281;51.364;9.566;2022-07-01T09:35:42;100162.50;;;14.04;88.92
31681;BME280;18281;51.364;9.566;2022-07-01T09:38:12;100163.22;;;14.06;88.17
31681;BME280;18281;51.364;9.566;2022-07-01T09:40:54;100163.13;;;13.95;86.50
31681;BME280;18281;51.364;9.566;2022-07-01T09:43:23;100159.75;;;14.44;86.90
31681;BME280;18281;51.364;9.566;2022-07-01T09:45:58;100161.00;;;14.00;87.77
31681;BME280;18281;51.364;9.566;2022-07-01T09:48:26;100156.91;;;14.34;87.30
31681;BME280;18281;51.364;9.566;2022-07-01T09:50:52;100162.78;;;14.64;85.39
31681;BME280;18281;51.364;9.566;2022-07-01T09:53:18;100163.63;;;14.51;85.08
31681;BME280;18281;51.364;9.566;2022-07-01T09:55:44;100156.34;;;14.42;83.88
31681;BME280;18281;51.364;9.566;2022-07-01T09:58:10;100155.19;;;13.95;84.51
31681;BME280;18281;51.364;9.566;2022-07-01T10:00:36;100154.56;;;14.04;82.64
31681;BME280;18281;51.364;9.566;2022-07-01T10:03:03;100142.66;;;14.24;82.29
31681;BME280;18281;51.364;9.566;2022-07-01T10:05:31;100144.13;;;14.41;81.74
31681;BME280;18281;51.364;9.566;2022-07-01T10:13:28;100141.06;;;14.21;80.78
31681;BME280;18281;51.364;9.566;2022-07-01T10:15:56;100128.50;;;14.25;80.45
31681;BME280;18281;51.364;9.566;2022-07-01T10:18:24;100141.47;;;14.15;80.88
31681;BME280;18281;51.364;9.566;2022-07-01T10:20:50;100146.44;;;14.20;80.76
31681;BME280;18281;51.364;9.566;2022-07-01T10:23:19;100145.34;;;13.84;82.80
31681;BME280;18281;51.364;9.566;2022-07-01T10:25:46;100147.59;;;14.29;82.68
31681;BME280;18281;51.364;9.566;2022-07-01T10:28:43;100152.25;;;14.25;82.20
31681;BME280;18281;51.364;9.566;2022-07-01T10:31:16;100151.63;;;14.21;83.39
31681;BME280;18281;51.364;9.566;2022-07-01T10:36:16;100163.59;;;13.87;84.43
31681;BME280;18281;51.364;9.566;2022-07-01T10:41:34;100165.13;;;14.17;82.98
31681;BME280;18281;51.364;9.566;2022-07-01T10:44:05;100168.16;;;13.98;84.35
31681;BME280;18281;51.364;9.566;2022-07-01T10:46:45;100174.00;;;14.29;84.92
31681;BME280;18281;51.364;9.566;2022-07-01T10:54:13;100179.50;;;14.25;90.45
31681;BME280;18281;51.364;9.566;2022-07-01T11:02:25;100196.84;;;13.49;97.39
31681;BME280;18281;51.364;9.566;2022-07-01T11:04:53;100198.88;;;13.58;97.04
31681;BME280;18281;51.364;9.566;2022-07-01T11:07:19;100197.78;;;13.75;95.73
31681;BME280;18281;51.364;9.566;2022-07-01T11:09:45;100195.78;;;13.52;93.93
31681;BME280;18281;51.364;9.566;2022-07-01T11:12:10;100183.72;;;13.75;93.31
31681;BME280;18281;51.364;9.566;2022-07-01T11:14:37;100195.72;;;13.93;93.90
31681;BME280;18281;51.364;9.566;2022-07-01T11:17:04;100192.78;;;13.98;93.39
31681;BME280;18281;51.364;9.566;2022-07-01T11:19:29;100200.09;;;13.80;94.23
31681;BME280;18281;51.364;9.566;2022-07-01T11:21:55;100200.31;;;13.77;91.81
31681;BME280;18281;51.364;9.566;2022-07-01T11:24:22;100198.16;;;13.97;93.49
31681;BME280;18281;51.364;9.566;2022-07-01T11:26:49;100197.47;;;14.07;91.26
31681;BME280;18281;51.364;9.566;2022-07-01T11:29:24;100190.03;;;14.13;89.46
31681;BME280;18281;51.364;9.566;2022-07-01T11:31:51;100191.88;;;14.25;90.88
31681;BME280;18281;51.364;9.566;2022-07-01T11:34:17;100199.91;;;14.36;91.25
31681;BME280;18281;51.364;9.566;2022-07-01T11:36:44;100197.03;;;14.01;94.94
31681;BME280;18281;51.364;9.566;2022-07-01T11:39:29;100193.94;;;14.07;91.21
31681;BME280;18281;51.364;9.566;2022-07-01T11:42:00;100197.91;;;13.87;94.74
31681;BME280;18281;51.364;9.566;2022-07-01T11:44:48;100195.75;;;14.19;92.07
31681;BME280;18281;51.364;9.566;2022-07-01T11:47:23;100203.91;;;14.42;92.27
31681;BME280;18281;51.364;9.566;2022-07-01T11:49:49;100195.56;;;14.48;89.62
31681;BME280;18281;51.364;9.566;2022-07-01T11:52:18;100186.97;;;14.70;88.70
31681;BME280;18281;51.364;9.566;2022-07-01T11:54:46;100181.41;;;14.23;86.76
31681;BME280;18281;51.364;9.566;2022-07-01T11:57:17;100192.91;;;14.35;87.44
31681;BME280;18281;51.364;9.566;2022-07-01T11:59:44;100193.66;;;14.24;86.83
31681;BME280;18281;51.364;9.566;2022-07-01T12:02:12;100193.56;;;14.39;86.71
31681;BME280;18281;51.364;9.566;2022-07-01T12:04:38;100201.69;;;14.49;86.84
31681;BME280;18281;51.364;9.566;2022-07-01T12:07:04;100196.00;;;14.68;86.09
31681;BME280;18281;51.364;9.566;2022-07-01T12:09:30;100197.88;;;14.14;87.07
31681;BME280;18281;51.364;9.566;2022-07-01T12:11:56;100200.84;;;14.48;87.14
31681;BME280;18281;51.364;9.566;2022-07-01T12:14:24;100208.66;;;14.63;87.94
31681;BME280;18281;51.364;9.566;2022-07-01T12:16:57;100205.28;;;14.60;86.10
31681;BME280;18281;51.364;9.566;2022-07-01T12:19:39;100211.59;;;14.19;88.82
31681;BME280;18281;51.364;9.566;2022-07-01T12:22:07;100208.00;;;14.20;89.83
31681;BME280;18281;51.364;9.566;2022-07-01T12:24:33;100210.41;;;13.98;90.69
31681;BME280;18281;51.364;9.566;2022-07-01T12:29:28;100220.22;;;13.68;95.26
31681;BME280;18281;51.364;9.566;2022-07-01T12:32:00;100212.66;;;14.17;93.36
31681;BME280;18281;51.364;9.566;2022-07-01T12:34:43;100222.81;;;13.83;95.47
31681;BME280;18281;51.364;9.566;2022-07-01T12:37:13;100230.19;;;13.50;97.86
31681;BME280;18281;51.364;9.566;2022-07-01T12:39:50;100225.53;;;13.81;95.29
31681;BME280;18281;51.364;9.566;2022-07-01T12:42:27;100231.63;;;13.69;95.90
31681;BME280;18281;51.364;9.566;2022-07-01T12:44:56;100219.50;;;13.79;97.12
31681;BME280;18281;51.364;9.566;2022-07-01T12:47:33;100218.03;;;14.02;95.98
31681;BME280;18281;51.364;9.566;2022-07-01T12:50:23;100223.22;;;14.04;95.37
31681;BME280;18281;51.364;9.566;2022-07-01T12:55:21;100215.63;;;14.38;94.51
31681;BME280;18281;51.364;9.566;2022-07-01T12:57:48;100220.28;;;14.21;93.86
31681;BME280;18281;51.364;9.566;2022-07-01T13:00:16;100220.78;;;14.14;95.15
31681;BME280;18281;51.364;9.566;2022-07-01T13:02:42;100231.47;;;14.12;94.50
31681;BME280;18281;51.364;9.566;2022-07-01T13:05:07;100236.88;;;14.49;93.61
31681;BME280;18281;51.364;9.566;2022-07-01T13:07:33;100217.00;;;14.31;91.36
31681;BME280;18281;51.364;9.566;2022-07-01T13:09:58;100217.63;;;14.73;89.80
31681;BME280;18281;51.364;9.566;2022-07-01T13:12:24;100221.75;;;14.77;88.48
31681;BME280;18281;51.364;9.566;2022-07-01T13:14:49;100218.28;;;15.26;87.57
31681;BME280;18281;51.364;9.566;2022-07-01T13:17:15;100215.25;;;14.83;85.63
31681;BME280;18281;51.364;9.566;2022-07-01T13:19:40;100218.13;;;15.17;85.20
31681;BME280;18281;51.364;9.566;2022-07-01T13:22:05;100227.88;;;14.77;85.18
31681;BME280;18281;51.364;9.566;2022-07-01T13:24:31;100220.28;;;14.86;86.58
31681;BME280;18281;51.364;9.566;2022-07-01T13:26:56;100212.94;;;15.15;86.60